createdAt,value
2017-09-01T00:00:00.114Z,794.27
2017-09-01T00:00:04.380Z,794.35
2017-09-01T00:00:08.352Z,794.31
2017-09-01T00:00:12.336Z,794.33
2017-09-01T00:00:16.165Z,794.34
2017-09-01T00:00:20.416Z,794.32
2017-09-01T00:00:24.499Z,794.34
2017-09-01T00:00:28.700Z,794.32
2017-09-01T00:00:32.793Z,794.32
2017-09-01T00:00:37.131Z,794.34
2017-09-01T00:00:41.349Z,794.34
2017-09-01T00:00:45.427Z,794.34
2017-09-01T00:00:49.643Z,794.38
2017-09-01T00:00:53.723Z,794.36
2017-09-01T00:00:57.932Z,794.34
2017-09-01T00:01:02.604Z,794.33
2017-09-01T00:01:06.947Z,794.37
2017-09-01T00:01:11.178Z,794.32
2017-09-01T00:01:15.399Z,794.35
2017-09-01T00:01:19.621Z,794.37
2017-09-01T00:01:23.582Z,794.32
2017-09-01T00:01:27.541Z,794.32
2017-09-01T00:01:31.629Z,794.32
2017-09-01T00:01:35.725Z,794.35
2017-09-01T00:01:39.823Z,794.34
2017-09-01T00:01:44.020Z,794.33
2017-09-01T00:01:48.235Z,794.36
2017-09-01T00:01:52.326Z,794.37
2017-09-01T00:01:56.410Z,794.37
2017-09-01T00:02:00.505Z,794.36
2017-09-01T00:02:04.855Z,794.32
2017-09-01T00:02:09.070Z,794.37
2017-09-01T00:02:13.540Z,794.36
2017-09-01T00:02:17.747Z,794.4
2017-09-01T00:02:21.961Z,794.34
2017-09-01T00:02:26.309Z,794.36
2017-09-01T00:02:30.641Z,794.39
2017-09-01T00:02:34.856Z,794.38
2017-09-01T00:02:38.827Z,794.39
2017-09-01T00:02:43.041Z,794.39
2017-09-01T00:02:47.370Z,794.41
2017-09-01T00:02:51.580Z,794.35
2017-09-01T00:02:55.684Z,794.39
2017-09-01T00:02:59.641Z,794.4
2017-09-01T00:03:04.059Z,794.39
2017-09-01T00:03:08.019Z,794.39
2017-09-01T00:03:12.232Z,794.38
2017-09-01T00:03:16.330Z,794.41
2017-09-01T00:03:20.286Z,794.41
2017-09-01T00:03:24.494Z,794.39
2017-09-01T00:03:28.576Z,794.41
2017-09-01T00:03:32.411Z,794.39
2017-09-01T00:03:36.749Z,794.38
2017-09-01T00:03:40.710Z,794.39
2017-09-01T00:03:44.669Z,794.42
2017-09-01T00:03:49.023Z,794.39
2017-09-01T00:03:53.116Z,794.41
2017-09-01T00:03:57.346Z,794.38
2017-09-01T00:04:01.438Z,794.36
2017-09-01T00:04:05.550Z,794.4
2017-09-01T00:04:09.615Z,794.42
2017-09-01T00:04:13.959Z,794.42
2017-09-01T00:04:17.926Z,794.4
2017-09-01T00:04:22.161Z,794.41
2017-09-01T00:04:26.130Z,794.42
2017-09-01T00:04:30.083Z,794.42
2017-09-01T00:04:34.173Z,794.35
2017-09-01T00:04:38.147Z,794.41
2017-09-01T00:04:42.236Z,794.41
2017-09-01T00:04:46.441Z,794.37
2017-09-01T00:04:50.287Z,794.37
2017-09-01T00:04:53.994Z,794.41
2017-09-01T00:04:58.332Z,794.42
2017-09-01T00:05:02.340Z,794.42
2017-09-01T00:05:06.426Z,794.43
2017-09-01T00:05:10.392Z,794.42
2017-09-01T00:05:14.480Z,794.43
2017-09-01T00:05:18.434Z,794.44
2017-09-01T00:05:22.784Z,794.46
2017-09-01T00:05:27.005Z,794.42
2017-09-01T00:05:31.091Z,794.43
2017-09-01T00:05:35.446Z,794.44
2017-09-01T00:05:39.533Z,794.41
2017-09-01T00:05:43.630Z,794.47
2017-09-01T00:05:47.726Z,794.46
2017-09-01T00:05:51.814Z,794.46
2017-09-01T00:05:55.903Z,794.4
2017-09-01T00:05:59.741Z,794.41
2017-09-01T00:06:04.225Z,794.45
2017-09-01T00:06:08.448Z,794.42
2017-09-01T00:06:12.425Z,794.46
2017-09-01T00:06:16.290Z,794.47
2017-09-01T00:06:20.367Z,794.45
2017-09-01T00:06:24.456Z,794.45
2017-09-01T00:06:28.557Z,794.45
2017-09-01T00:06:32.898Z,794.45
2017-09-01T00:06:37.224Z,794.47
2017-09-01T00:06:41.310Z,794.45
2017-09-01T00:06:45.140Z,794.39
2017-09-01T00:06:49.598Z,794.44
2017-09-01T00:06:53.578Z,794.44
2017-09-01T00:06:57.663Z,794.44
2017-09-01T00:07:01.519Z,794.46
2017-09-01T00:07:05.603Z,794.43
2017-09-01T00:07:09.824Z,794.49
2017-09-01T00:07:13.902Z,794.49
2017-09-01T00:07:18.135Z,794.48
2017-09-01T00:07:22.218Z,794.48
2017-09-01T00:07:26.300Z,794.44
2017-09-01T00:07:30.268Z,794.46
2017-09-01T00:07:34.357Z,794.45
2017-09-01T00:07:38.832Z,794.45
2017-09-01T00:07:42.929Z,794.46
2017-09-01T00:07:47.021Z,794.46
2017-09-01T00:07:51.347Z,794.47
2017-09-01T00:07:55.668Z,794.46
2017-09-01T00:07:59.746Z,794.46
2017-09-01T00:08:04.041Z,794.47
2017-09-01T00:08:07.998Z,794.45
2017-09-01T00:08:12.199Z,794.46
2017-09-01T00:08:16.528Z,794.48
2017-09-01T00:08:20.984Z,794.48
2017-09-01T00:08:25.192Z,794.46
2017-09-01T00:08:29.288Z,794.49
2017-09-01T00:08:33.365Z,794.49
2017-09-01T00:08:37.713Z,794.5
2017-09-01T00:08:41.787Z,794.49
2017-09-01T00:08:45.862Z,794.51
2017-09-01T00:08:50.215Z,794.44
2017-09-01T00:08:53.924Z,794.46
2017-09-01T00:08:58.265Z,794.5
2017-09-01T00:09:02.477Z,794.49
2017-09-01T00:09:06.700Z,794.53
2017-09-01T00:09:10.907Z,794.5
2017-09-01T00:09:15.120Z,794.54
2017-09-01T00:09:19.449Z,794.52
2017-09-01T00:09:23.308Z,794.52
2017-09-01T00:09:27.271Z,794.52
2017-09-01T00:09:31.107Z,794.51
2017-09-01T00:09:35.336Z,794.5
2017-09-01T00:09:39.590Z,794.5
2017-09-01T00:09:43.689Z,794.51
2017-09-01T00:09:47.656Z,794.57
2017-09-01T00:09:51.872Z,794.52
2017-09-01T00:09:56.220Z,794.53
2017-09-01T00:10:00.176Z,794.54
2017-09-01T00:10:04.265Z,794.52
2017-09-01T00:10:08.491Z,794.53
2017-09-01T00:10:12.206Z,794.53
2017-09-01T00:10:16.300Z,794.55
2017-09-01T00:10:20.381Z,794.54
2017-09-01T00:10:24.339Z,794.55
2017-09-01T00:10:28.700Z,794.55
2017-09-01T00:10:32.534Z,794.55
2017-09-01T00:10:36.755Z,794.56
2017-09-01T00:10:40.982Z,794.54
2017-09-01T00:10:45.075Z,794.53
2017-09-01T00:10:49.286Z,794.54
2017-09-01T00:10:53.253Z,794.54
2017-09-01T00:10:57.352Z,794.58
2017-09-01T00:11:01.460Z,794.56
2017-09-01T00:11:05.563Z,794.55
2017-09-01T00:11:09.420Z,794.55
2017-09-01T00:11:13.755Z,794.58
2017-09-01T00:11:17.835Z,794.55
2017-09-01T00:11:21.926Z,794.6
2017-09-01T00:11:26.268Z,794.57
2017-09-01T00:11:30.370Z,794.59
2017-09-01T00:11:34.472Z,794.57
2017-09-01T00:11:38.689Z,794.58
2017-09-01T00:11:42.786Z,794.61
2017-09-01T00:11:47.131Z,794.59
2017-09-01T00:11:50.952Z,794.6
2017-09-01T00:11:55.178Z,794.59
2017-09-01T00:11:59.268Z,794.62
2017-09-01T00:12:03.356Z,794.6
2017-09-01T00:12:07.451Z,794.58
2017-09-01T00:12:11.792Z,794.59
2017-09-01T00:12:15.764Z,794.61
2017-09-01T00:12:19.986Z,794.59
2017-09-01T00:12:24.244Z,794.61
2017-09-01T00:12:28.453Z,794.59
2017-09-01T00:12:32.671Z,794.63
2017-09-01T00:12:36.516Z,794.61
2017-09-01T00:12:40.741Z,794.64
2017-09-01T00:12:44.945Z,794.62
2017-09-01T00:12:49.291Z,794.62
2017-09-01T00:12:53.253Z,794.62
2017-09-01T00:12:57.352Z,794.63
2017-09-01T00:13:01.703Z,794.66
2017-09-01T00:13:05.999Z,794.64
2017-09-01T00:13:10.205Z,794.64
2017-09-01T00:13:14.068Z,794.61
2017-09-01T00:13:18.038Z,794.63
2017-09-01T00:13:22.122Z,794.63
2017-09-01T00:13:26.204Z,794.61
2017-09-01T00:13:30.287Z,794.63
2017-09-01T00:13:34.010Z,794.6
2017-09-01T00:13:38.089Z,794.61
2017-09-01T00:13:42.053Z,794.6
2017-09-01T00:13:46.133Z,794.58
2017-09-01T00:13:50.333Z,794.63
2017-09-01T00:13:54.407Z,794.65
2017-09-01T00:13:58.497Z,794.63
2017-09-01T00:14:02.998Z,794.63
2017-09-01T00:14:07.219Z,794.63
2017-09-01T00:14:11.436Z,794.63
2017-09-01T00:14:15.667Z,794.63
2017-09-01T00:14:19.752Z,794.64
2017-09-01T00:14:23.827Z,794.66
2017-09-01T00:14:27.782Z,794.63
2017-09-01T00:14:31.734Z,794.64
2017-09-01T00:14:35.559Z,794.63
2017-09-01T00:14:39.773Z,794.63
2017-09-01T00:14:43.860Z,794.65
2017-09-01T00:14:47.956Z,794.66
2017-09-01T00:14:51.919Z,794.64
2017-09-01T00:14:56.005Z,794.66
2017-09-01T00:15:00.342Z,794.65
2017-09-01T00:15:04.570Z,794.62
2017-09-01T00:15:08.658Z,794.65
2017-09-01T00:15:12.631Z,794.65
2017-09-01T00:15:17.122Z,794.63
2017-09-01T00:15:21.210Z,794.6
2017-09-01T00:15:25.297Z,794.66
2017-09-01T00:15:29.375Z,794.63
2017-09-01T00:15:33.488Z,794.63
2017-09-01T00:15:37.456Z,794.66
2017-09-01T00:15:41.288Z,794.68
2017-09-01T00:15:45.509Z,794.67
2017-09-01T00:15:49.478Z,794.67
2017-09-01T00:15:53.688Z,794.69
2017-09-01T00:15:57.780Z,794.63
2017-09-01T00:16:01.796Z,794.64
2017-09-01T00:16:06.008Z,794.67
2017-09-01T00:16:10.344Z,794.67
2017-09-01T00:16:14.429Z,794.66
2017-09-01T00:16:18.270Z,794.7
2017-09-01T00:16:22.606Z,794.62
2017-09-01T00:16:26.817Z,794.68
2017-09-01T00:16:31.018Z,794.71
2017-09-01T00:16:35.232Z,794.7
2017-09-01T00:16:39.317Z,794.69
2017-09-01T00:16:43.152Z,794.66
2017-09-01T00:16:47.121Z,794.65
2017-09-01T00:16:51.343Z,794.67
2017-09-01T00:16:55.432Z,794.71
2017-09-01T00:16:59.650Z,794.7
2017-09-01T00:17:03.837Z,794.68
2017-09-01T00:17:07.939Z,794.7
2017-09-01T00:17:12.159Z,794.67
2017-09-01T00:17:16.125Z,794.67
2017-09-01T00:17:20.341Z,794.69
2017-09-01T00:17:24.170Z,794.69
2017-09-01T00:17:28.004Z,794.66
2017-09-01T00:17:32.115Z,794.68
2017-09-01T00:17:36.220Z,794.67
2017-09-01T00:17:40.432Z,794.67
2017-09-01T00:17:44.504Z,794.67
2017-09-01T00:17:48.987Z,794.68
2017-09-01T00:17:53.089Z,794.63
2017-09-01T00:17:57.283Z,794.64
2017-09-01T00:18:01.369Z,794.71
2017-09-01T00:18:05.469Z,794.68
2017-09-01T00:18:09.571Z,794.67
2017-09-01T00:18:13.525Z,794.7
2017-09-01T00:18:17.608Z,794.7
2017-09-01T00:18:21.821Z,794.7
2017-09-01T00:18:25.662Z,794.7
2017-09-01T00:18:29.633Z,794.67
2017-09-01T00:18:33.587Z,794.65
2017-09-01T00:18:37.422Z,794.68
2017-09-01T00:18:41.397Z,794.62
2017-09-01T00:18:45.619Z,794.68
2017-09-01T00:18:49.460Z,794.68
2017-09-01T00:18:53.795Z,794.66
2017-09-01T00:18:57.765Z,794.68
2017-09-01T00:19:01.990Z,794.63
2017-09-01T00:19:06.058Z,794.64
2017-09-01T00:19:10.148Z,794.66
2017-09-01T00:19:14.362Z,794.63
2017-09-01T00:19:18.695Z,794.67
2017-09-01T00:19:22.780Z,794.69
2017-09-01T00:19:27.133Z,794.69
2017-09-01T00:19:31.099Z,794.71
2017-09-01T00:19:35.318Z,794.71
2017-09-01T00:19:39.654Z,794.7
2017-09-01T00:19:43.496Z,794.72
2017-09-01T00:19:47.745Z,794.69
2017-09-01T00:19:51.825Z,794.7
2017-09-01T00:19:55.781Z,794.7
2017-09-01T00:19:59.622Z,794.7
2017-09-01T00:20:03.837Z,794.71
2017-09-01T00:20:08.172Z,794.69
2017-09-01T00:20:12.137Z,794.69
2017-09-01T00:20:16.245Z,794.72
2017-09-01T00:20:20.177Z,794.73
2017-09-01T00:20:24.270Z,794.7
2017-09-01T00:20:28.613Z,794.72
2017-09-01T00:20:32.967Z,794.68
2017-09-01T00:20:37.061Z,794.73
2017-09-01T00:20:41.396Z,794.7
2017-09-01T00:20:45.370Z,794.7
2017-09-01T00:20:49.358Z,794.72
2017-09-01T00:20:53.578Z,794.72
2017-09-01T00:20:57.520Z,794.71
2017-09-01T00:21:01.611Z,794.68
2017-09-01T00:21:05.573Z,794.67
2017-09-01T00:21:09.909Z,794.67
2017-09-01T00:21:13.873Z,794.7
2017-09-01T00:21:17.827Z,794.71
2017-09-01T00:21:22.092Z,794.67
2017-09-01T00:21:26.303Z,794.64
2017-09-01T00:21:30.527Z,794.64
2017-09-01T00:21:34.490Z,794.67
2017-09-01T00:21:38.579Z,794.71
2017-09-01T00:21:42.680Z,794.7
2017-09-01T00:21:46.782Z,794.69
2017-09-01T00:21:50.865Z,794.69
2017-09-01T00:21:54.581Z,794.71
2017-09-01T00:21:58.665Z,794.71
2017-09-01T00:22:02.744Z,794.71
2017-09-01T00:22:06.817Z,794.7
2017-09-01T00:22:10.649Z,794.71
2017-09-01T00:22:14.861Z,794.7
2017-09-01T00:22:19.077Z,794.67
2017-09-01T00:22:23.064Z,794.66
2017-09-01T00:22:27.006Z,794.71
2017-09-01T00:22:31.084Z,794.72
2017-09-01T00:22:35.287Z,794.68
2017-09-01T00:22:39.403Z,794.73
2017-09-01T00:22:43.507Z,794.75
2017-09-01T00:22:47.341Z,794.73
2017-09-01T00:22:51.685Z,794.73
2017-09-01T00:22:55.785Z,794.71
2017-09-01T00:23:00.118Z,794.74
2017-09-01T00:23:04.377Z,794.75
2017-09-01T00:23:08.723Z,794.73
2017-09-01T00:23:12.810Z,794.74
2017-09-01T00:23:16.651Z,794.73
2017-09-01T00:23:20.846Z,794.71
2017-09-01T00:23:24.787Z,794.72
2017-09-01T00:23:28.893Z,794.72
2017-09-01T00:23:33.096Z,794.7
2017-09-01T00:23:37.314Z,794.72
2017-09-01T00:23:41.539Z,794.73
2017-09-01T00:23:45.520Z,794.69
2017-09-01T00:23:49.479Z,794.72
2017-09-01T00:23:53.451Z,794.73
2017-09-01T00:23:57.560Z,794.73
2017-09-01T00:24:01.520Z,794.76
2017-09-01T00:24:05.696Z,794.73
2017-09-01T00:24:10.046Z,794.75
2017-09-01T00:24:14.013Z,794.73
2017-09-01T00:24:18.344Z,794.73
2017-09-01T00:24:22.171Z,794.72
2017-09-01T00:24:26.124Z,794.69
2017-09-01T00:24:30.253Z,794.73
2017-09-01T00:24:34.215Z,794.73
2017-09-01T00:24:38.300Z,794.67
2017-09-01T00:24:42.381Z,794.73
2017-09-01T00:24:46.717Z,794.75
2017-09-01T00:24:50.566Z,794.72
2017-09-01T00:24:54.536Z,794.74
2017-09-01T00:24:58.626Z,794.74
2017-09-01T00:25:02.718Z,794.74
2017-09-01T00:25:07.088Z,794.74
2017-09-01T00:25:10.803Z,794.74
2017-09-01T00:25:14.765Z,794.76
2017-09-01T00:25:18.853Z,794.75
2017-09-01T00:25:23.078Z,794.76
2017-09-01T00:25:27.287Z,794.72
2017-09-01T00:25:31.353Z,794.77
2017-09-01T00:25:35.190Z,794.78
2017-09-01T00:25:39.021Z,794.75
2017-09-01T00:25:43.105Z,794.77
2017-09-01T00:25:47.330Z,794.75
2017-09-01T00:25:51.288Z,794.77
2017-09-01T00:25:55.379Z,794.78
2017-09-01T00:25:59.352Z,794.76
2017-09-01T00:26:03.821Z,794.78
2017-09-01T00:26:07.911Z,794.73
2017-09-01T00:26:11.870Z,794.76
2017-09-01T00:26:15.958Z,794.74
2017-09-01T00:26:20.179Z,794.76
2017-09-01T00:26:24.263Z,794.69
2017-09-01T00:26:28.483Z,794.77
2017-09-01T00:26:32.698Z,794.75
2017-09-01T00:26:36.419Z,794.78
2017-09-01T00:26:40.638Z,794.75
2017-09-01T00:26:44.837Z,794.77
2017-09-01T00:26:48.936Z,794.77
2017-09-01T00:26:53.293Z,794.79
2017-09-01T00:26:57.376Z,794.79
2017-09-01T00:27:01.773Z,794.78
2017-09-01T00:27:05.991Z,794.77
2017-09-01T00:27:09.945Z,794.81
2017-09-01T00:27:13.785Z,794.77
2017-09-01T00:27:18.001Z,794.73
2017-09-01T00:27:22.333Z,794.76
2017-09-01T00:27:26.674Z,794.71
2017-09-01T00:27:31.146Z,794.78
2017-09-01T00:27:35.095Z,794.8
2017-09-01T00:27:39.199Z,794.78
2017-09-01T00:27:43.552Z,794.78
2017-09-01T00:27:47.632Z,794.75
2017-09-01T00:27:51.850Z,794.81
2017-09-01T00:27:56.074Z,794.78
2017-09-01T00:28:00.150Z,794.82
2017-09-01T00:28:04.531Z,794.81
2017-09-01T00:28:08.623Z,794.76
2017-09-01T00:28:12.840Z,794.73
2017-09-01T00:28:16.806Z,794.81
2017-09-01T00:28:21.024Z,794.79
2017-09-01T00:28:25.240Z,794.8
2017-09-01T00:28:29.206Z,794.8
2017-09-01T00:28:33.426Z,794.79
2017-09-01T00:28:37.523Z,794.83
2017-09-01T00:28:41.734Z,794.81
2017-09-01T00:28:46.042Z,794.81
2017-09-01T00:28:50.419Z,794.85
2017-09-01T00:28:54.510Z,794.84
2017-09-01T00:28:58.716Z,794.81
2017-09-01T00:29:03.034Z,794.8
2017-09-01T00:29:07.112Z,794.81
2017-09-01T00:29:11.325Z,794.83
2017-09-01T00:29:15.655Z,794.85
2017-09-01T00:29:19.871Z,794.82
2017-09-01T00:29:23.711Z,794.79
2017-09-01T00:29:27.938Z,794.86
2017-09-01T00:29:32.151Z,794.8
2017-09-01T00:29:36.127Z,794.84
2017-09-01T00:29:40.336Z,794.79
2017-09-01T00:29:44.307Z,794.79
2017-09-01T00:29:48.395Z,794.82
2017-09-01T00:29:52.607Z,794.84
2017-09-01T00:29:56.680Z,794.82
2017-09-01T00:30:00.648Z,794.82
2017-09-01T00:30:04.860Z,794.8
2017-09-01T00:30:08.840Z,794.85
2017-09-01T00:30:12.676Z,794.83
2017-09-01T00:30:16.759Z,794.82
2017-09-01T00:30:21.114Z,794.81
2017-09-01T00:30:25.063Z,794.83
2017-09-01T00:30:28.902Z,794.86
2017-09-01T00:30:33.238Z,794.82
2017-09-01T00:30:37.439Z,794.82
2017-09-01T00:30:41.785Z,794.82
2017-09-01T00:30:45.880Z,794.84
2017-09-01T00:30:50.232Z,794.83
2017-09-01T00:30:54.079Z,794.81
2017-09-01T00:30:58.294Z,794.82
2017-09-01T00:31:02.647Z,794.81
2017-09-01T00:31:06.990Z,794.82
2017-09-01T00:31:11.072Z,794.84
2017-09-01T00:31:15.027Z,794.82
2017-09-01T00:31:18.995Z,794.85
2017-09-01T00:31:23.099Z,794.84
2017-09-01T00:31:27.186Z,794.84
2017-09-01T00:31:31.515Z,794.81
2017-09-01T00:31:35.868Z,794.85
2017-09-01T00:31:39.844Z,794.81
2017-09-01T00:31:44.059Z,794.81
2017-09-01T00:31:48.021Z,794.82
2017-09-01T00:31:52.240Z,794.81
2017-09-01T00:31:56.168Z,794.79
2017-09-01T00:32:00.120Z,794.82
2017-09-01T00:32:04.349Z,794.86
2017-09-01T00:32:08.310Z,794.81
2017-09-01T00:32:12.158Z,794.81
2017-09-01T00:32:16.492Z,794.83
2017-09-01T00:32:20.583Z,794.82
2017-09-01T00:32:24.671Z,794.83
2017-09-01T00:32:28.757Z,794.8
2017-09-01T00:32:32.840Z,794.85
2017-09-01T00:32:36.930Z,794.84
2017-09-01T00:32:41.011Z,794.87
2017-09-01T00:32:45.225Z,794.82
2017-09-01T00:32:49.310Z,794.85
2017-09-01T00:32:53.408Z,794.83
2017-09-01T00:32:57.626Z,794.86
2017-09-01T00:33:01.723Z,794.88
2017-09-01T00:33:05.810Z,794.81
2017-09-01T00:33:09.887Z,794.81
2017-09-01T00:33:14.080Z,794.81
2017-09-01T00:33:18.047Z,794.82
2017-09-01T00:33:22.152Z,794.85
2017-09-01T00:33:26.375Z,794.87
2017-09-01T00:33:30.609Z,794.87
2017-09-01T00:33:34.705Z,794.87
2017-09-01T00:33:38.923Z,794.89
2017-09-01T00:33:42.899Z,794.87
2017-09-01T00:33:47.141Z,794.86
2017-09-01T00:33:51.092Z,794.88
2017-09-01T00:33:55.437Z,794.87
2017-09-01T00:33:59.516Z,794.87
2017-09-01T00:34:03.885Z,794.89
2017-09-01T00:34:08.100Z,794.87
2017-09-01T00:34:12.076Z,794.85
2017-09-01T00:34:16.168Z,794.87
2017-09-01T00:34:20.382Z,794.87
2017-09-01T00:34:24.589Z,794.87
2017-09-01T00:34:28.812Z,794.88
2017-09-01T00:34:32.773Z,794.85
2017-09-01T00:34:37.003Z,794.87
2017-09-01T00:34:41.090Z,794.84
2017-09-01T00:34:44.915Z,794.85
2017-09-01T00:34:49.259Z,794.87
2017-09-01T00:34:53.343Z,794.85
2017-09-01T00:34:57.302Z,794.86
2017-09-01T00:35:01.152Z,794.87
2017-09-01T00:35:05.116Z,794.86
2017-09-01T00:35:09.074Z,794.84
2017-09-01T00:35:13.417Z,794.85
2017-09-01T00:35:17.629Z,794.85
2017-09-01T00:35:21.451Z,794.85
2017-09-01T00:35:25.566Z,794.85
2017-09-01T00:35:29.780Z,794.82
2017-09-01T00:35:33.871Z,794.82
2017-09-01T00:35:37.964Z,794.85
2017-09-01T00:35:42.178Z,794.84
2017-09-01T00:35:46.266Z,794.84
2017-09-01T00:35:50.500Z,794.86
2017-09-01T00:35:54.329Z,794.87
2017-09-01T00:35:58.422Z,794.85
2017-09-01T00:36:02.736Z,794.86
2017-09-01T00:36:06.953Z,794.87
2017-09-01T00:36:10.907Z,794.87
2017-09-01T00:36:15.122Z,794.84
2017-09-01T00:36:19.345Z,794.86
2017-09-01T00:36:23.451Z,794.88
2017-09-01T00:36:27.410Z,794.88
2017-09-01T00:36:31.254Z,794.89
2017-09-01T00:36:35.354Z,794.89
2017-09-01T00:36:39.473Z,794.87
2017-09-01T00:36:43.678Z,794.89
2017-09-01T00:36:47.760Z,794.87
2017-09-01T00:36:51.705Z,794.89
2017-09-01T00:36:55.687Z,794.88
2017-09-01T00:36:59.767Z,794.91
2017-09-01T00:37:03.893Z,794.88
2017-09-01T00:37:07.989Z,794.89
2017-09-01T00:37:12.320Z,794.88
2017-09-01T00:37:16.788Z,794.85
2017-09-01T00:37:20.742Z,794.91
2017-09-01T00:37:24.582Z,794.9
2017-09-01T00:37:28.403Z,794.88
2017-09-01T00:37:32.629Z,794.9
2017-09-01T00:37:36.582Z,794.86
2017-09-01T00:37:40.423Z,794.86
2017-09-01T00:37:44.383Z,794.91
2017-09-01T00:37:48.587Z,794.87
2017-09-01T00:37:52.556Z,794.89
2017-09-01T00:37:56.511Z,794.91
2017-09-01T00:38:00.852Z,794.87
2017-09-01T00:38:05.066Z,794.86
2017-09-01T00:38:08.902Z,794.85
2017-09-01T00:38:12.988Z,794.84
2017-09-01T00:38:16.949Z,794.84
2017-09-01T00:38:20.899Z,794.87
2017-09-01T00:38:25.115Z,794.87
2017-09-01T00:38:29.326Z,794.86
2017-09-01T00:38:33.300Z,794.89
2017-09-01T00:38:37.145Z,794.87
2017-09-01T00:38:41.251Z,794.85
2017-09-01T00:38:45.075Z,794.83
2017-09-01T00:38:49.529Z,794.81
2017-09-01T00:38:53.503Z,794.88
2017-09-01T00:38:57.591Z,794.86
2017-09-01T00:39:01.862Z,794.85
2017-09-01T00:39:06.397Z,794.86
2017-09-01T00:39:10.749Z,794.87
2017-09-01T00:39:14.848Z,794.88
2017-09-01T00:39:18.914Z,794.84
2017-09-01T00:39:23.007Z,794.83
2017-09-01T00:39:27.101Z,794.82
2017-09-01T00:39:31.067Z,794.86
2017-09-01T00:39:35.410Z,794.85
2017-09-01T00:39:39.368Z,794.87
2017-09-01T00:39:43.580Z,794.84
2017-09-01T00:39:47.926Z,794.84
2017-09-01T00:39:52.007Z,794.86
2017-09-01T00:39:56.347Z,794.89
2017-09-01T00:40:00.683Z,794.83
2017-09-01T00:40:04.848Z,794.82
2017-09-01T00:40:08.933Z,794.86
2017-09-01T00:40:13.134Z,794.83
2017-09-01T00:40:17.225Z,794.82
2017-09-01T00:40:21.425Z,794.8
2017-09-01T00:40:25.628Z,794.86
2017-09-01T00:40:29.826Z,794.84
2017-09-01T00:40:33.789Z,794.83
2017-09-01T00:40:37.752Z,794.85
2017-09-01T00:40:41.971Z,794.85
2017-09-01T00:40:46.442Z,794.82
2017-09-01T00:40:50.663Z,794.86
2017-09-01T00:40:54.991Z,794.81
2017-09-01T00:40:58.954Z,794.82
2017-09-01T00:41:03.361Z,794.81
2017-09-01T00:41:07.209Z,794.82
2017-09-01T00:41:11.308Z,794.83
2017-09-01T00:41:15.403Z,794.81
2017-09-01T00:41:19.238Z,794.84
2017-09-01T00:41:23.337Z,794.83
2017-09-01T00:41:27.438Z,794.84
2017-09-01T00:41:31.399Z,794.81
2017-09-01T00:41:35.728Z,794.82
2017-09-01T00:41:39.564Z,794.81
2017-09-01T00:41:43.651Z,794.83
2017-09-01T00:41:47.992Z,794.79
2017-09-01T00:41:51.953Z,794.81
2017-09-01T00:41:56.285Z,794.8
2017-09-01T00:42:00.489Z,794.81
2017-09-01T00:42:04.817Z,794.78
2017-09-01T00:42:09.064Z,794.79
2017-09-01T00:42:13.284Z,794.78
2017-09-01T00:42:17.736Z,794.78
2017-09-01T00:42:21.821Z,794.76
2017-09-01T00:42:25.907Z,794.82
2017-09-01T00:42:29.992Z,794.8
2017-09-01T00:42:33.966Z,794.79
2017-09-01T00:42:38.054Z,794.76
2017-09-01T00:42:42.009Z,794.8
2017-09-01T00:42:45.980Z,794.8
2017-09-01T00:42:50.074Z,794.77
2017-09-01T00:42:54.170Z,794.82
2017-09-01T00:42:58.262Z,794.79
2017-09-01T00:43:02.387Z,794.79
2017-09-01T00:43:06.595Z,794.81
2017-09-01T00:43:10.686Z,794.8
2017-09-01T00:43:15.016Z,794.79
2017-09-01T00:43:19.096Z,794.81
2017-09-01T00:43:23.190Z,794.77
2017-09-01T00:43:27.147Z,794.8
2017-09-01T00:43:31.231Z,794.76
2017-09-01T00:43:35.309Z,794.79
2017-09-01T00:43:39.637Z,794.81
2017-09-01T00:43:43.992Z,794.74
2017-09-01T00:43:48.219Z,794.78
2017-09-01T00:43:52.686Z,794.8
2017-09-01T00:43:56.898Z,794.81
2017-09-01T00:44:01.118Z,794.77
2017-09-01T00:44:05.585Z,794.8
2017-09-01T00:44:09.542Z,794.78
2017-09-01T00:44:13.507Z,794.77
2017-09-01T00:44:17.873Z,794.78
2017-09-01T00:44:21.956Z,794.79
2017-09-01T00:44:26.169Z,794.77
2017-09-01T00:44:30.491Z,794.78
2017-09-01T00:44:34.869Z,794.76
2017-09-01T00:44:38.957Z,794.78
2017-09-01T00:44:43.031Z,794.78
2017-09-01T00:44:46.999Z,794.78
2017-09-01T00:44:51.231Z,794.79
2017-09-01T00:44:55.329Z,794.79
2017-09-01T00:44:59.292Z,794.8
2017-09-01T00:45:03.378Z,794.81
2017-09-01T00:45:07.581Z,794.8
2017-09-01T00:45:11.651Z,794.82
2017-09-01T00:45:15.982Z,794.78
2017-09-01T00:45:19.979Z,794.76
2017-09-01T00:45:24.186Z,794.74
2017-09-01T00:45:28.399Z,794.79
2017-09-01T00:45:32.486Z,794.76
2017-09-01T00:45:36.693Z,794.75
2017-09-01T00:45:40.784Z,794.79
2017-09-01T00:45:44.742Z,794.79
2017-09-01T00:45:48.697Z,794.75
2017-09-01T00:45:52.774Z,794.77
2017-09-01T00:45:57.124Z,794.81
2017-09-01T00:46:01.224Z,794.79
2017-09-01T00:46:05.431Z,794.81
2017-09-01T00:46:09.509Z,794.79
2017-09-01T00:46:13.588Z,794.8
2017-09-01T00:46:17.927Z,794.82
2017-09-01T00:46:22.140Z,794.8
2017-09-01T00:46:26.222Z,794.8
2017-09-01T00:46:30.447Z,794.8
2017-09-01T00:47:10.523Z,794.79
2017-09-01T00:47:14.740Z,794.81
2017-09-01T00:47:18.820Z,794.83
2017-09-01T00:47:23.037Z,794.82
2017-09-01T00:47:27.128Z,794.79
2017-09-01T00:47:31.227Z,794.79
2017-09-01T00:47:35.314Z,794.81
2017-09-01T00:47:39.408Z,794.83
2017-09-01T00:47:43.256Z,794.82
2017-09-01T00:47:47.345Z,794.8
2017-09-01T00:47:51.309Z,794.79
2017-09-01T00:47:55.514Z,794.81
2017-09-01T00:47:59.858Z,794.81
2017-09-01T00:48:04.067Z,794.8
2017-09-01T00:48:08.030Z,794.79
2017-09-01T00:48:11.999Z,794.78
2017-09-01T00:48:16.224Z,794.78
2017-09-01T00:48:20.678Z,794.79
2017-09-01T00:48:24.633Z,794.81
2017-09-01T00:48:28.962Z,794.82
2017-09-01T00:48:33.424Z,794.82
2017-09-01T00:48:37.261Z,794.82
2017-09-01T00:48:41.235Z,794.81
2017-09-01T00:48:45.201Z,794.82
2017-09-01T00:48:49.539Z,794.79
2017-09-01T00:48:53.498Z,794.8
2017-09-01T00:48:57.721Z,794.82
2017-09-01T00:49:02.031Z,794.82
2017-09-01T00:49:06.491Z,794.82
2017-09-01T00:49:10.455Z,794.8
2017-09-01T00:49:14.531Z,794.84
2017-09-01T00:49:18.514Z,794.81
2017-09-01T00:49:22.219Z,794.79
2017-09-01T00:49:26.560Z,794.84
2017-09-01T00:49:30.777Z,794.81
2017-09-01T00:49:34.744Z,794.82
2017-09-01T00:49:38.841Z,794.82
2017-09-01T00:49:43.052Z,794.85
2017-09-01T00:49:47.272Z,794.81
2017-09-01T00:49:51.351Z,794.84
2017-09-01T00:49:55.311Z,794.82
2017-09-01T00:49:59.400Z,794.85
2017-09-01T00:50:03.499Z,794.8
2017-09-01T00:50:07.478Z,794.82
2017-09-01T00:50:11.565Z,794.8
2017-09-01T00:50:15.777Z,794.8
2017-09-01T00:50:19.897Z,794.79
2017-09-01T00:50:23.858Z,794.77
2017-09-01T00:50:28.080Z,794.77
2017-09-01T00:50:32.177Z,794.81
2017-09-01T00:50:35.885Z,794.82
2017-09-01T00:50:39.841Z,794.81
2017-09-01T00:50:44.050Z,794.81
2017-09-01T00:50:48.014Z,794.79
2017-09-01T00:50:52.361Z,794.85
2017-09-01T00:50:56.572Z,794.83
2017-09-01T00:51:00.917Z,794.82
2017-09-01T00:51:04.886Z,794.81
2017-09-01T00:51:08.974Z,794.82
2017-09-01T00:51:12.932Z,794.82
2017-09-01T00:51:17.018Z,794.79
2017-09-01T00:51:20.983Z,794.82
2017-09-01T00:51:24.949Z,794.8
2017-09-01T00:51:29.026Z,794.78
2017-09-01T00:51:33.114Z,794.78
2017-09-01T00:51:37.327Z,794.81
2017-09-01T00:51:41.432Z,794.82
2017-09-01T00:51:45.383Z,794.8
2017-09-01T00:51:49.340Z,794.8
2017-09-01T00:51:53.441Z,794.8
2017-09-01T00:51:57.780Z,794.77
2017-09-01T00:52:02.246Z,794.77
2017-09-01T00:52:06.454Z,794.78